Time;durP1;ratioP1;P1;durP2;ratioP2;P2;SDS_P1;SDS_P2;PMS_P1;PMS_P2;Temp;Humidity;BMP_temperature;BMP_pressure;BME280_temperature;BME280_humidity;BME280_pressure;Samples;Min_cycle;Max_cycle;Signal;HPM_P1;HPM_P2
2020/12/27 00:02:14;;;;;;;16.33;8.93;;;5.90;99.90;;;;;;5030400;28;20193;-77
2020/12/27 00:04:40;;;;;;;16.97;9.10;;;5.90;99.90;;;;;;5025276;28;20182;-77
2020/12/27 00:07:07;;;;;;;16.37;8.57;;;6.00;99.90;;;;;;5031917;28;20267;-77
2020/12/27 00:09:38;;;;;;;17.77;8.37;;;6.00;99.90;;;;;;5027643;28;20193;-77
2020/12/27 00:12:04;;;;;;;15.17;8.53;;;6.00;99.90;;;;;;5028499;28;20278;-77
2020/12/27 00:14:30;;;;;;;18.43;8.47;;;6.00;99.90;;;;;;5040339;28;20197;-77
2020/12/27 00:17:00;;;;;;;15.77;8.60;;;6.00;99.90;;;;;;5024893;28;20658;-77
2020/12/27 00:19:26;;;;;;;15.67;8.40;;;6.00;99.90;;;;;;5028500;28;20205;-76
2020/12/27 00:21:51;;;;;;;14.07;7.77;;;5.90;99.90;;;;;;5027390;28;20185;-77
2020/12/27 00:24:17;;;;;;;13.80;8.03;;;5.90;99.90;;;;;;5026110;28;20211;-77
2020/12/27 00:26:42;;;;;;;16.73;7.27;;;5.90;99.90;;;;;;5026785;28;20182;-77
2020/12/27 00:29:08;;;;;;;14.50;7.20;;;5.80;99.90;;;;;;5026589;28;20262;-77
2020/12/27 00:31:34;;;;;;;15.70;7.37;;;5.90;99.90;;;;;;5035665;28;20193;-77
2020/12/27 00:33:59;;;;;;;14.73;7.00;;;5.90;99.90;;;;;;5029151;28;20236;-77
2020/12/27 00:36:26;;;;;;;15.37;7.40;;;5.90;99.90;;;;;;5027475;28;20210;-78
2020/12/27 00:38:51;;;;;;;13.87;6.97;;;6.00;99.90;;;;;;5029971;28;20196;-77
2020/12/27 00:41:24;;;;;;;12.40;6.63;;;5.90;99.90;;;;;;5021974;28;20186;-78
2020/12/27 00:43:51;;;;;;;10.50;6.13;;;5.90;99.90;;;;;;5024065;28;20261;-76
2020/12/27 00:46:18;;;;;;;11.53;6.33;;;5.90;99.90;;;;;;5047022;28;20182;-76
2020/12/27 00:48:44;;;;;;;13.90;6.77;;;5.90;99.90;;;;;;5015918;28;20186;-77
2020/12/27 00:51:10;;;;;;;13.33;6.40;;;5.80;99.90;;;;;;5029899;28;20696;-77
2020/12/27 00:53:36;;;;;;;12.33;6.43;;;5.80;99.90;;;;;;5040781;28;20205;-77
2020/12/27 00:56:02;;;;;;;13.03;6.37;;;5.80;99.90;;;;;;5028957;28;20562;-77
2020/12/27 00:58:31;;;;;;;13.07;6.07;;;5.80;99.90;;;;;;5045979;28;20179;-77
2020/12/27 01:00:58;;;;;;;15.83;6.63;;;5.80;99.90;;;;;;5031590;28;20187;-77
2020/12/27 01:03:24;;;;;;;11.63;6.10;;;5.80;99.90;;;;;;5032229;28;20560;-77
2020/12/27 01:06:09;;;;;;;12.03;6.27;;;5.90;99.90;;;;;;5032650;28;20191;-77
2020/12/27 01:08:34;;;;;;;13.27;6.20;;;5.90;99.90;;;;;;5032799;28;20173;-77
2020/12/27 01:11:05;;;;;;;11.53;5.53;;;6.00;99.90;;;;;;5031482;28;20198;-77
2020/12/27 01:13:31;;;;;;;11.00;5.83;;;5.90;99.90;;;;;;5028187;28;20399;-77
2020/12/27 01:15:57;;;;;;;12.10;6.17;;;5.90;99.90;;;;;;5032192;28;20182;-77
2020/12/27 01:18:26;;;;;;;12.60;6.07;;;5.90;99.90;;;;;;5032847;28;20180;-77
2020/12/27 01:20:55;;;;;;;10.53;5.83;;;5.90;99.90;;;;;;5046809;28;20684;-78
2020/12/27 01:23:21;;;;;;;11.43;5.50;;;5.90;99.90;;;;;;5028861;28;20243;-77
2020/12/27 01:25:48;;;;;;;10.07;5.13;;;6.00;99.90;;;;;;5046804;28;20202;-77
2020/12/27 01:28:14;;;;;;;10.33;5.33;;;6.00;99.90;;;;;;5015127;28;20617;-77
2020/12/27 01:30:43;;;;;;;14.40;4.90;;;6.00;99.90;;;;;;5042437;28;20182;-77
2020/12/27 01:33:16;;;;;;;10.47;5.30;;;5.90;99.90;;;;;;5022927;28;20260;-77
2020/12/27 01:35:53;;;;;;;10.13;5.33;;;5.90;99.90;;;;;;5046047;28;20897;-76
2020/12/27 01:38:20;;;;;;;11.67;4.63;;;5.90;99.90;;;;;;5019765;28;20648;-77
2020/12/27 01:40:46;;;;;;;11.73;5.53;;;5.90;99.90;;;;;;5026869;28;20205;-77
2020/12/27 01:43:13;;;;;;;9.10;4.30;;;5.90;99.90;;;;;;5041807;28;20560;-77
2020/12/27 01:45:40;;;;;;;10.57;5.03;;;6.00;99.90;;;;;;5015532;28;20209;-77
2020/12/27 01:48:15;;;;;;;10.10;4.77;;;6.10;99.90;;;;;;5040822;28;20178;-77
2020/12/27 01:50:46;;;;;;;9.40;4.57;;;6.10;99.90;;;;;;5033268;28;20794;-77
2020/12/27 01:53:26;;;;;;;10.27;4.90;;;6.10;99.90;;;;;;5016246;28;20224;-77
2020/12/27 01:55:57;;;;;;;9.03;4.27;;;6.10;99.90;;;;;;5027951;28;20269;-77
2020/12/27 01:58:27;;;;;;;8.47;4.40;;;6.10;99.90;;;;;;5025899;28;20190;-77
2020/12/27 02:01:01;;;;;;;10.80;4.30;;;6.10;99.90;;;;;;5042766;28;20177;-78
2020/12/27 02:03:38;;;;;;;9.17;4.43;;;6.10;99.90;;;;;;5031585;28;20588;-77
2020/12/27 02:06:14;;;;;;;9.87;4.73;;;6.20;99.90;;;;;;5021787;28;20218;-77
2020/12/27 02:08:44;;;;;;;10.03;4.33;;;6.30;99.90;;;;;;5025980;28;20204;-77
2020/12/27 02:11:24;;;;;;;8.30;3.83;;;6.20;99.90;;;;;;5030381;28;20184;-77
2020/12/27 02:13:53;;;;;;;9.93;4.43;;;6.30;99.90;;;;;;5047552;28;20239;-77
2020/12/27 02:16:25;;;;;;;6.83;3.87;;;6.20;99.90;;;;;;5030649;28;20265;-77
2020/12/27 02:19:14;;;;;;;8.17;3.40;;;6.10;99.90;;;;;;5018611;28;20387;-77
2020/12/27 02:21:44;;;;;;;8.93;3.80;;;6.10;99.90;;;;;;5031576;28;20185;-76
2020/12/27 02:24:20;;;;;;;7.43;3.63;;;6.10;99.90;;;;;;5025166;28;20177;-77
2020/12/27 02:27:00;;;;;;;9.63;3.63;;;6.10;99.90;;;;;;5031271;28;20185;-77
2020/12/27 02:29:28;;;;;;;6.90;3.30;;;6.20;99.90;;;;;;5025686;28;20189;-76
2020/12/27 02:31:56;;;;;;;6.90;3.13;;;6.30;99.90;;;;;;5028541;28;20184;-77
2020/12/27 02:34:23;;;;;;;6.20;3.20;;;6.30;99.90;;;;;;5041619;28;20188;-76
2020/12/27 02:36:49;;;;;;;7.70;3.10;;;6.30;99.90;;;;;;5025857;28;20664;-77
2020/12/27 02:39:18;;;;;;;7.93;3.40;;;6.20;99.90;;;;;;5030019;28;20225;-77
2020/12/27 02:41:47;;;;;;;6.07;3.27;;;6.30;99.90;;;;;;5039263;28;20658;-76
2020/12/27 02:44:19;;;;;;;6.30;2.87;;;6.30;99.90;;;;;;5022829;28;20188;-77
2020/12/27 02:47:03;;;;;;;7.23;3.10;;;6.20;99.90;;;;;;5027018;28;20207;-77
2020/12/27 02:49:47;;;;;;;5.33;2.77;;;6.20;99.90;;;;;;5040852;28;20243;-77
2020/12/27 02:52:14;;;;;;;5.07;2.53;;;6.30;99.90;;;;;;5024679;28;20708;-77
2020/12/27 02:54:40;;;;;;;6.40;2.77;;;6.30;99.90;;;;;;5044883;28;20181;-76
2020/12/27 02:57:12;;;;;;;5.87;2.80;;;6.30;99.90;;;;;;5016750;28;20185;-77
2020/12/27 02:59:38;;;;;;;4.50;2.60;;;6.20;99.90;;;;;;5018705;28;20208;-76
2020/12/27 03:02:24;;;;;;;7.10;2.67;;;6.30;99.90;;;;;;5006882;28;21694;-77
2020/12/27 03:05:03;;;;;;;4.40;2.23;;;6.30;99.90;;;;;;5029831;28;20192;-76
2020/12/27 03:07:29;;;;;;;6.03;2.50;;;6.40;99.90;;;;;;5014577;28;20184;-76
2020/12/27 03:10:04;;;;;;;4.57;2.50;;;6.30;99.90;;;;;;5040752;28;20187;-76
2020/12/27 03:12:39;;;;;;;4.93;2.40;;;6.30;99.90;;;;;;5023496;28;20188;-76
2020/12/27 03:15:05;;;;;;;7.20;2.50;;;6.40;99.90;;;;;;5028486;28;20186;-76
2020/12/27 03:17:49;;;;;;;4.73;2.03;;;6.40;99.90;;;;;;5024299;28;20227;-77
2020/12/27 03:20:33;;;;;;;4.17;2.00;;;6.50;99.90;;;;;;5028263;28;20625;-77
2020/12/27 03:23:11;;;;;;;4.53;1.90;;;6.50;99.90;;;;;;5028574;28;20179;-77
2020/12/27 03:25:46;;;;;;;3.00;1.43;;;6.50;99.90;;;;;;5028880;28;20270;-77
2020/12/27 03:28:12;;;;;;;3.23;1.67;;;6.40;99.90;;;;;;5030141;28;20311;-76
2020/12/27 03:30:42;;;;;;;3.13;1.67;;;6.40;99.90;;;;;;5035628;28;20581;-76
2020/12/27 03:33:14;;;;;;;3.43;1.60;;;6.50;99.90;;;;;;5042625;28;20188;-76
2020/12/27 03:35:51;;;;;;;3.90;1.20;;;6.50;99.90;;;;;;5030065;28;20186;-77
2020/12/27 03:38:17;;;;;;;1.97;1.03;;;6.50;99.90;;;;;;5029167;28;20186;-77
2020/12/27 03:41:02;;;;;;;2.73;1.30;;;6.60;99.90;;;;;;5047825;28;20602;-77
2020/12/27 03:43:49;;;;;;;2.37;1.13;;;6.50;99.90;;;;;;5044565;28;20188;-76
2020/12/27 03:46:24;;;;;;;3.77;1.40;;;6.50;99.90;;;;;;5026038;28;20633;-77
2020/12/27 03:49:07;;;;;;;5.37;1.30;;;6.50;99.90;;;;;;5027361;28;20269;-76
2020/12/27 03:51:44;;;;;;;6.87;1.10;;;6.70;99.90;;;;;;5013577;28;20197;-77
2020/12/27 03:54:11;;;;;;;2.33;1.10;;;6.70;99.90;;;;;;5028373;28;20830;-76
2020/12/27 03:57:00;;;;;;;1.83;0.97;;;6.70;99.90;;;;;;5016267;28;20201;-76
2020/12/27 03:59:37;;;;;;;1.27;0.80;;;6.80;99.90;;;;;;5035906;28;20252;-77
2020/12/27 04:02:22;;;;;;;3.37;1.30;;;6.70;99.90;;;;;;5026227;28;20177;-77
2020/12/27 04:04:48;;;;;;;2.10;1.20;;;6.50;99.90;;;;;;5029061;28;20226;-77
2020/12/27 04:07:14;;;;;;;3.37;1.20;;;6.50;99.90;;;;;;5013131;28;20178;-76
2020/12/27 04:09:46;;;;;;;3.80;1.20;;;6.50;99.90;;;;;;5041652;28;20228;-76
2020/12/27 04:12:13;;;;;;;2.20;0.90;;;6.40;99.90;;;;;;5042843;28;20551;-78
2020/12/27 04:14:40;;;;;;;3.33;1.00;;;6.40;99.90;;;;;;5016877;28;20182;-77
2020/12/27 04:17:07;;;;;;;2.00;1.20;;;6.40;99.90;;;;;;5015511;28;20262;-77
2020/12/27 04:19:35;;;;;;;1.90;1.10;;;6.40;99.90;;;;;;5039799;28;20201;-76
2020/12/27 04:22:07;;;;;;;1.60;1.00;;;6.40;99.90;;;;;;5044875;28;20243;-77
2020/12/27 04:25:05;;;;;;;3.17;1.00;;;6.40;99.90;;;;;;5019983;28;20219;-78
2020/12/27 04:27:32;;;;;;;3.07;1.10;;;6.40;99.90;;;;;;5027054;28;20187;-77
2020/12/27 04:29:58;;;;;;;1.90;1.00;;;6.40;99.90;;;;;;5032160;28;20186;-77
2020/12/27 04:32:41;;;;;;;1.57;0.90;;;6.40;99.90;;;;;;5021279;28;20191;-78
2020/12/27 04:35:16;;;;;;;2.73;0.93;;;6.50;99.90;;;;;;5045333;28;20179;-77
2020/12/27 04:37:44;;;;;;;3.10;1.00;;;6.40;99.90;;;;;;5034858;28;20189;-77
2020/12/27 04:40:19;;;;;;;1.60;0.90;;;6.40;99.90;;;;;;5033218;28;20258;-77
2020/12/27 04:42:51;;;;;;;1.13;0.80;;;6.40;99.90;;;;;;5044851;28;20174;-77
2020/12/27 04:45:31;;;;;;;1.87;0.90;;;6.50;99.90;;;;;;5033350;28;20607;-77
2020/12/27 04:48:07;;;;;;;1.90;0.60;;;6.50;99.90;;;;;;5031897;28;20185;-77
2020/12/27 04:50:52;;;;;;;1.67;0.90;;;6.40;99.90;;;;;;5028319;28;21874;-78
2020/12/27 04:53:21;;;;;;;3.00;1.10;;;6.30;99.90;;;;;;5022346;28;20206;-77
2020/12/27 04:55:52;;;;;;;1.80;0.90;;;6.30;99.90;;;;;;5015961;28;20289;-77
2020/12/27 04:58:32;;;;;;;2.27;0.90;;;6.20;99.90;;;;;;5022855;28;20203;-77
2020/12/27 05:01:15;;;;;;;1.40;0.80;;;6.20;99.90;;;;;;5014716;28;20181;-77
2020/12/27 05:03:59;;;;;;;1.37;0.90;;;6.20;99.90;;;;;;5026387;28;20210;-77
2020/12/27 05:06:31;;;;;;;1.87;1.00;;;6.20;99.90;;;;;;5034827;28;20197;-77
2020/12/27 05:08:59;;;;;;;1.90;1.00;;;6.20;99.90;;;;;;5042833;28;20186;-78
2020/12/27 05:11:29;;;;;;;2.63;0.90;;;6.20;99.90;;;;;;5043535;28;20644;-77
2020/12/27 05:14:03;;;;;;;2.33;0.80;;;6.20;99.90;;;;;;5031976;28;20712;-77
2020/12/27 05:16:33;;;;;;;1.77;1.00;;;6.10;99.90;;;;;;5017360;28;20180;-77
2020/12/27 05:19:00;;;;;;;1.87;0.80;;;6.10;99.90;;;;;;5033279;28;20673;-77
2020/12/27 05:21:37;;;;;;;4.20;1.20;;;6.10;99.90;;;;;;5044317;28;20173;-77
2020/12/27 05:24:05;;;;;;;2.37;0.93;;;6.20;99.90;;;;;;5030557;28;20184;-77
2020/12/27 05:26:41;;;;;;;2.10;0.97;;;6.20;99.90;;;;;;5048194;28;20264;-78
2020/12/27 05:29:31;;;;;;;3.40;1.00;;;6.10;99.90;;;;;;5032284;28;20551;-77
2020/12/27 05:32:04;;;;;;;4.13;0.90;;;6.10;99.90;;;;;;5025190;28;20255;-78
2020/12/27 05:34:50;;;;;;;4.23;1.40;;;6.10;99.90;;;;;;5027782;28;20671;-77
2020/12/27 05:37:42;;;;;;;3.20;1.20;;;6.10;99.90;;;;;;5018314;28;20206;-77
2020/12/27 05:40:26;;;;;;;4.43;1.30;;;6.10;99.90;;;;;;5031737;28;20241;-77
2020/12/27 05:43:16;;;;;;;1.53;1.10;;;6.10;99.90;;;;;;5046261;28;20177;-77
2020/12/27 05:45:52;;;;;;;2.27;1.10;;;6.10;99.90;;;;;;5033448;28;20192;-78
2020/12/27 05:48:18;;;;;;;2.53;0.90;;;6.10;99.90;;;;;;5032264;28;20661;-78
2020/12/27 05:50:44;;;;;;;1.23;0.70;;;6.10;99.90;;;;;;5027581;28;20283;-78
2020/12/27 05:53:19;;;;;;;1.40;0.77;;;6.10;99.90;;;;;;5016721;28;20555;-77
2020/12/27 05:55:51;;;;;;;1.30;0.70;;;6.10;99.90;;;;;;5034527;28;20189;-77
2020/12/27 05:58:20;;;;;;;3.53;1.00;;;6.20;99.90;;;;;;5028247;28;20242;-78
2020/12/27 06:00:54;;;;;;;1.60;0.63;;;6.20;99.90;;;;;;5029432;28;20209;-78
2020/12/27 06:03:29;;;;;;;1.77;0.70;;;6.20;99.90;;;;;;5025369;28;20188;-79
2020/12/27 06:06:08;;;;;;;0.87;0.60;;;6.20;99.90;;;;;;5014502;28;20177;-78
2020/12/27 06:08:53;;;;;;;1.40;0.67;;;6.20;99.90;;;;;;5032648;28;20184;-77
2020/12/27 06:11:23;;;;;;;2.20;0.80;;;6.20;99.90;;;;;;5015161;28;20235;-77
2020/12/27 06:14:16;;;;;;;1.77;0.70;;;6.20;99.90;;;;;;5028005;28;20185;-77
2020/12/27 06:17:15;;;;;;;3.07;0.80;;;6.20;99.90;;;;;;5029659;28;20187;-78
2020/12/27 06:20:07;;;;;;;0.80;0.60;;;6.20;99.90;;;;;;5026467;28;20246;-78
2020/12/27 06:22:42;;;;;;;1.87;0.70;;;6.20;99.90;;;;;;5030866;28;20205;-77
2020/12/27 06:25:29;;;;;;;1.67;0.70;;;6.20;99.90;;;;;;5025031;28;20193;-78
2020/12/27 06:27:57;;;;;;;4.37;0.80;;;6.30;99.90;;;;;;5032086;28;20180;-78
2020/12/27 06:30:57;;;;;;;2.23;0.80;;;6.30;99.90;;;;;;5029819;28;20221;-78
2020/12/27 06:33:49;;;;;;;1.83;0.77;;;6.30;99.90;;;;;;5013095;28;20203;-78
2020/12/27 06:36:33;;;;;;;2.07;0.80;;;6.30;99.90;;;;;;5029442;28;20645;-78
2020/12/27 06:39:26;;;;;;;1.83;0.70;;;6.30;99.90;;;;;;5043163;28;20205;-78
2020/12/27 06:42:07;;;;;;;4.07;1.00;;;6.30;99.90;;;;;;5029850;28;20228;-78
2020/12/27 06:44:41;;;;;;;2.23;0.80;;;6.40;99.90;;;;;;5029936;28;20226;-78
2020/12/27 06:47:15;;;;;;;1.50;0.90;;;6.40;99.90;;;;;;5029859;28;20640;-78
2020/12/27 06:50:19;;;;;;;2.63;0.97;;;6.40;99.90;;;;;;5029235;28;20225;-80
2020/12/27 06:52:56;;;;;;;3.20;0.90;;;6.40;99.90;;;;;;5030892;28;20669;-78
2020/12/27 06:55:49;;;;;;;2.40;0.93;;;6.40;99.90;;;;;;5024275;28;20679;-78
2020/12/27 06:58:23;;;;;;;3.73;0.90;;;6.50;99.90;;;;;;5044719;28;20593;-79
2020/12/27 07:01:15;;;;;;;1.77;0.80;;;6.50;99.90;;;;;;5029204;28;20297;-78
2020/12/27 07:03:45;;;;;;;2.50;0.97;;;6.50;99.90;;;;;;5031664;28;20175;-78
2020/12/27 07:06:24;;;;;;;1.97;0.80;;;6.40;99.90;;;;;;5045280;28;20560;-78
2020/12/27 07:08:55;;;;;;;2.27;1.00;;;6.40;99.90;;;;;;5027580;28;20174;-79
2020/12/27 07:11:23;;;;;;;2.23;0.80;;;6.40;99.90;;;;;;5028441;28;20189;-79
2020/12/27 07:13:53;;;;;;;2.90;0.73;;;6.40;99.90;;;;;;5025857;28;20188;-78
2020/12/27 07:16:20;;;;;;;1.97;0.93;;;6.40;99.90;;;;;;5022325;28;20266;-78
2020/12/27 07:18:47;;;;;;;1.60;0.90;;;6.40;99.90;;;;;;5028525;28;20233;-79
2020/12/27 07:21:19;;;;;;;4.03;0.93;;;6.40;99.90;;;;;;5028324;28;20248;-78
2020/12/27 07:24:05;;;;;;;2.93;0.97;;;6.50;99.90;;;;;;5026218;28;20306;-78
2020/12/27 07:26:43;;;;;;;3.30;1.00;;;6.50;99.90;;;;;;5026575;28;20230;-79
2020/12/27 07:29:10;;;;;;;1.87;1.23;;;6.50;99.90;;;;;;5042110;28;20237;-78
2020/12/27 07:31:38;;;;;;;1.20;0.50;;;6.50;99.90;;;;;;5024011;28;20220;-78
2020/12/27 07:34:06;;;;;;;1.47;0.77;;;6.60;99.90;;;;;;5027823;28;20191;-78
2020/12/27 07:36:33;;;;;;;0.90;0.60;;;6.60;99.90;;;;;;5027130;28;20192;-78
2020/12/27 07:39:06;;;;;;;2.43;0.90;;;6.60;99.90;;;;;;5026795;28;20568;-78
2020/12/27 07:41:34;;;;;;;3.07;0.80;;;6.70;99.90;;;;;;5028866;28;20179;-78
2020/12/27 07:44:01;;;;;;;1.97;0.90;;;6.70;99.90;;;;;;5024964;28;20270;-83
2020/12/27 07:46:27;;;;;;;1.97;0.60;;;6.70;99.90;;;;;;5035356;28;20187;-78
2020/12/27 07:48:54;;;;;;;2.30;0.87;;;6.70;99.90;;;;;;5024742;28;20239;-78
2020/12/27 07:51:24;;;;;;;3.00;0.80;;;6.70;99.90;;;;;;5042957;28;20678;-78
2020/12/27 07:53:55;;;;;;;1.27;0.70;;;6.70;99.90;;;;;;5021783;28;20211;-78
2020/12/27 07:56:23;;;;;;;3.07;0.80;;;6.70;99.90;;;;;;5030667;28;20265;-78
2020/12/27 07:58:53;;;;;;;4.37;0.80;;;6.70;99.90;;;;;;5043391;28;20288;-78
2020/12/27 08:01:23;;;;;;;2.73;0.90;;;6.70;99.90;;;;;;5028345;28;20718;-78
2020/12/27 08:04:00;;;;;;;2.00;1.00;;;6.70;99.90;;;;;;5027013;28;20232;-77
2020/12/27 08:06:28;;;;;;;1.83;0.80;;;6.80;99.90;;;;;;5027711;28;20244;-78
2020/12/27 08:09:13;;;;;;;1.20;0.80;;;6.80;99.90;;;;;;5032244;28;20541;-78
2020/12/27 08:11:44;;;;;;;0.80;0.70;;;6.80;99.90;;;;;;5031000;28;20776;-78
2020/12/27 08:14:13;;;;;;;2.53;0.60;;;6.80;99.90;;;;;;5042126;28;20188;-79
2020/12/27 08:16:40;;;;;;;4.83;0.90;;;6.70;99.90;;;;;;5044543;28;20283;-79
2020/12/27 08:19:12;;;;;;;1.00;0.67;;;6.70;99.90;;;;;;5026894;28;20255;-77
2020/12/27 08:21:40;;;;;;;1.47;0.67;;;6.70;99.90;;;;;;5042348;28;20194;-78
2020/12/27 08:24:08;;;;;;;1.83;0.90;;;6.70;99.90;;;;;;5024700;28;20181;-78
2020/12/27 08:26:35;;;;;;;2.97;0.90;;;6.70;99.90;;;;;;5027412;28;20290;-78
2020/12/27 08:29:23;;;;;;;2.00;0.90;;;6.80;99.90;;;;;;5030684;28;20223;-78
2020/12/27 08:32:04;;;;;;;1.93;0.80;;;6.70;99.90;;;;;;5040732;28;20188;-78
2020/12/27 08:34:30;;;;;;;3.67;0.80;;;6.80;99.90;;;;;;5043735;28;20197;-77
2020/12/27 08:36:58;;;;;;;2.23;0.70;;;6.70;99.90;;;;;;5031063;28;20275;-78
2020/12/27 08:40:05;;;;;;;1.63;0.77;;;6.70;99.90;;;;;;5025680;28;20197;-77
2020/12/27 08:42:42;;;;;;;4.13;1.47;;;6.70;99.90;;;;;;4992724;28;20198;-78
2020/12/27 08:45:20;;;;;;;1.07;0.60;;;6.70;99.90;;;;;;4975722;28;20663;-78
2020/12/27 08:48:18;;;;;;;1.67;0.80;;;6.70;99.90;;;;;;5013815;28;20248;-78
2020/12/27 08:50:46;;;;;;;1.77;0.50;;;6.70;99.90;;;;;;5024974;28;20233;-78
2020/12/27 08:53:13;;;;;;;1.20;0.57;;;6.70;99.90;;;;;;5029230;28;20181;-78
2020/12/27 08:55:40;;;;;;;0.90;0.60;;;6.70;99.90;;;;;;5025769;28;20556;-78
2020/12/27 08:58:10;;;;;;;2.50;0.60;;;6.80;99.90;;;;;;5027069;28;20235;-79
2020/12/27 09:00:36;;;;;;;2.77;0.60;;;6.80;99.90;;;;;;5041645;28;20212;-78
2020/12/27 09:03:04;;;;;;;0.77;0.40;;;6.70;99.90;;;;;;5030734;28;20184;-78
2020/12/27 09:05:31;;;;;;;1.83;0.57;;;6.70;99.90;;;;;;5029116;28;20213;-78
2020/12/27 09:07:58;;;;;;;2.67;0.80;;;6.80;99.90;;;;;;5026950;28;20214;-77
2020/12/27 09:10:23;;;;;;;1.77;0.63;;;6.70;99.90;;;;;;5033404;28;20243;-77
2020/12/27 09:13:06;;;;;;;1.37;0.63;;;6.80;99.90;;;;;;5034248;28;20726;-78
2020/12/27 09:15:49;;;;;;;3.67;0.60;;;6.80;99.90;;;;;;5029857;28;20746;-78
2020/12/27 09:18:16;;;;;;;2.40;0.73;;;6.80;99.90;;;;;;5024138;28;20202;-78
2020/12/27 09:20:46;;;;;;;3.20;0.70;;;6.80;99.90;;;;;;5031005;28;20298;-78
2020/12/27 09:23:13;;;;;;;2.27;0.70;;;6.90;99.90;;;;;;5021910;28;20186;-78
2020/12/27 09:25:39;;;;;;;2.73;0.80;;;6.80;99.90;;;;;;5043837;28;21013;-77
2020/12/27 09:28:16;;;;;;;1.87;0.60;;;6.80;99.90;;;;;;5027948;28;20312;-78
2020/12/27 09:30:42;;;;;;;1.60;0.70;;;6.80;99.90;;;;;;5031325;28;20190;-78
2020/12/27 09:33:08;;;;;;;2.40;0.70;;;6.80;99.90;;;;;;5028292;28;20178;-78
2020/12/27 09:35:34;;;;;;;1.20;0.60;;;6.80;99.90;;;;;;5044661;28;20670;-77
2020/12/27 09:38:00;;;;;;;1.93;0.60;;;6.80;99.90;;;;;;5029406;28;21712;-78
2020/12/27 09:40:25;;;;;;;1.87;0.73;;;6.80;99.90;;;;;;5032320;28;20216;-77
2020/12/27 09:43:02;;;;;;;1.73;0.50;;;6.80;99.90;;;;;;5028150;28;20190;-78
2020/12/27 09:45:27;;;;;;;1.60;0.77;;;6.80;99.90;;;;;;5025797;28;20201;-78
2020/12/27 09:47:58;;;;;;;2.90;0.80;;;6.80;99.90;;;;;;5029744;28;20182;-78
2020/12/27 09:50:35;;;;;;;1.03;0.67;;;6.90;99.90;;;;;;5029081;28;20304;-78
2020/12/27 09:53:05;;;;;;;1.00;0.50;;;6.80;99.90;;;;;;5026001;28;20185;-78
2020/12/27 09:55:31;;;;;;;1.63;0.63;;;6.90;99.90;;;;;;5039117;28;20526;-78
2020/12/27 09:57:57;;;;;;;3.37;0.70;;;6.80;99.90;;;;;;5027464;28;20186;-79
2020/12/27 10:00:24;;;;;;;1.27;0.60;;;6.80;99.90;;;;;;5025000;28;20308;-78
2020/12/27 10:02:50;;;;;;;3.23;0.80;;;6.80;99.90;;;;;;5031819;28;20196;-78
2020/12/27 10:05:15;;;;;;;1.40;0.63;;;6.70;99.90;;;;;;5044100;28;20829;-78
2020/12/27 10:07:42;;;;;;;1.90;0.57;;;6.70;99.90;;;;;;5029110;28;20190;-79
2020/12/27 10:10:09;;;;;;;1.53;0.50;;;6.70;99.90;;;;;;5028640;28;20249;-79
2020/12/27 10:12:36;;;;;;;1.67;0.70;;;6.80;99.90;;;;;;5029878;28;20211;-78
2020/12/27 10:15:04;;;;;;;2.83;0.50;;;6.80;99.90;;;;;;5029695;28;20198;-79
2020/12/27 10:17:30;;;;;;;1.97;0.60;;;6.80;99.90;;;;;;5028249;28;20195;-78
2020/12/27 10:19:58;;;;;;;1.30;0.60;;;6.70;99.90;;;;;;5028629;28;20213;-79
2020/12/27 10:22:25;;;;;;;1.90;0.60;;;6.70;99.90;;;;;;5031948;28;20271;-79
2020/12/27 10:24:51;;;;;;;1.97;0.70;;;6.70;99.90;;;;;;5033124;28;20233;-79
2020/12/27 10:27:16;;;;;;;1.30;0.70;;;6.70;99.90;;;;;;5015064;28;20228;-80
2020/12/27 10:29:42;;;;;;;2.53;0.60;;;6.70;99.90;;;;;;5031229;28;20215;-79
2020/12/27 10:32:08;;;;;;;1.03;0.73;;;6.70;99.90;;;;;;5040661;28;20205;-79
2020/12/27 10:34:35;;;;;;;1.70;0.60;;;6.70;99.90;;;;;;5013135;28;20208;-78
2020/12/27 10:37:02;;;;;;;2.43;0.70;;;6.80;99.90;;;;;;5027476;28;20213;-79
2020/12/27 10:39:29;;;;;;;1.03;0.50;;;6.80;99.90;;;;;;5030360;28;20267;-80
2020/12/27 10:41:55;;;;;;;1.47;0.60;;;6.70;99.90;;;;;;5028513;28;20623;-80
2020/12/27 10:44:21;;;;;;;1.33;0.70;;;6.70;99.90;;;;;;5029675;28;20210;-79
2020/12/27 10:46:50;;;;;;;0.97;0.50;;;6.70;99.90;;;;;;5029715;28;20177;-79
2020/12/27 10:49:17;;;;;;;1.27;0.50;;;6.60;99.90;;;;;;5043028;28;20365;-79
2020/12/27 10:51:43;;;;;;;3.03;1.27;;;6.60;99.90;;;;;;5047562;28;20289;-79
2020/12/27 10:54:11;;;;;;;5.40;1.37;;;6.60;99.90;;;;;;5025809;28;20231;-79
2020/12/27 10:56:37;;;;;;;2.13;0.93;;;6.60;99.90;;;;;;5030376;28;20217;-79
2020/12/27 10:59:02;;;;;;;1.43;0.63;;;6.70;99.90;;;;;;5044097;28;20632;-79
2020/12/27 11:01:28;;;;;;;1.37;0.60;;;6.70;99.90;;;;;;5029260;28;20185;-80
2020/12/27 11:03:54;;;;;;;4.27;1.10;;;6.60;99.90;;;;;;5029854;28;20261;-79
2020/12/27 11:06:31;;;;;;;2.87;0.90;;;6.70;99.90;;;;;;5032007;28;20208;-79
2020/12/27 11:08:57;;;;;;;3.87;0.60;;;6.70;99.90;;;;;;5029166;28;20185;-80
2020/12/27 11:11:23;;;;;;;0.40;0.40;;;6.60;99.90;;;;;;5028121;28;20229;-80
2020/12/27 11:13:48;;;;;;;1.33;0.50;;;6.70;99.90;;;;;;5039166;28;20199;-80
2020/12/27 11:16:15;;;;;;;2.43;0.60;;;6.70;99.90;;;;;;5029992;28;20221;-79
2020/12/27 11:18:41;;;;;;;12.93;7.10;;;6.60;99.90;;;;;;5029805;28;20190;-80
2020/12/27 11:21:06;;;;;;;11.73;4.80;;;6.60;99.90;;;;;;5028736;28;20194;-80
2020/12/27 11:23:32;;;;;;;25.97;14.47;;;6.60;99.90;;;;;;5026218;28;20269;-80
2020/12/27 11:25:57;;;;;;;6.93;2.77;;;6.70;99.90;;;;;;5025785;28;20241;-80
2020/12/27 11:28:23;;;;;;;5.63;1.90;;;6.70;99.90;;;;;;5027683;28;20192;-80
2020/12/27 11:30:49;;;;;;;4.53;1.70;;;6.70;99.90;;;;;;5031223;28;20189;-80
2020/12/27 11:33:14;;;;;;;1.77;0.80;;;6.70;99.90;;;;;;5026896;28;20293;-80
2020/12/27 11:35:40;;;;;;;2.87;1.33;;;6.70;99.90;;;;;;5028997;28;20268;-80
2020/12/27 11:38:07;;;;;;;1.90;0.60;;;6.70;99.90;;;;;;5029110;28;20185;-80
2020/12/27 11:40:33;;;;;;;2.40;0.90;;;6.70;99.90;;;;;;5042355;28;20209;-79
2020/12/27 11:42:59;;;;;;;0.80;0.50;;;6.80;99.90;;;;;;5039970;28;20273;-80
2020/12/27 11:45:25;;;;;;;0.70;0.60;;;6.80;99.90;;;;;;5024176;28;20277;-80
2020/12/27 11:47:51;;;;;;;0.57;0.50;;;6.80;99.90;;;;;;5028096;28;20213;-81
2020/12/27 11:50:16;;;;;;;2.50;0.50;;;6.80;99.90;;;;;;5024119;28;20227;-80
2020/12/27 11:52:42;;;;;;;1.20;0.50;;;6.80;99.90;;;;;;5027978;28;20193;-81
2020/12/27 11:55:07;;;;;;;0.93;0.47;;;6.80;99.90;;;;;;5027575;28;20181;-80
2020/12/27 11:57:34;;;;;;;1.70;0.50;;;6.90;99.90;;;;;;5028811;28;20187;-80
2020/12/27 12:00:06;;;;;;;0.50;0.40;;;6.90;99.90;;;;;;5027020;28;20221;-80
2020/12/27 12:02:37;;;;;;;3.77;0.63;;;6.90;99.90;;;;;;5025030;28;20189;-80
2020/12/27 12:05:02;;;;;;;0.80;0.50;;;6.90;99.90;;;;;;5004425;28;20428;-80
2020/12/27 12:07:28;;;;;;;2.53;1.07;;;6.90;99.90;;;;;;5019800;28;20720;-80
2020/12/27 12:09:54;;;;;;;2.53;1.20;;;6.90;99.90;;;;;;5016456;28;20255;-80
2020/12/27 12:12:19;;;;;;;1.30;0.60;;;6.90;99.90;;;;;;5017304;28;20191;-79
2020/12/27 12:14:45;;;;;;;7.50;2.40;;;6.90;99.90;;;;;;5017803;28;20219;-80
2020/12/27 12:17:10;;;;;;;3.10;1.27;;;7.00;99.90;;;;;;5036424;28;20485;-79
2020/12/27 12:19:36;;;;;;;3.57;1.40;;;6.90;99.90;;;;;;5019830;28;20240;-79
2020/12/27 12:22:02;;;;;;;2.73;1.17;;;7.00;99.90;;;;;;5036405;28;20627;-79
2020/12/27 12:24:27;;;;;;;2.83;1.13;;;7.00;99.90;;;;;;5020562;28;20206;-79
2020/12/27 12:26:53;;;;;;;6.90;2.97;;;7.00;99.90;;;;;;5032124;28;20295;-79
2020/12/27 12:29:19;;;;;;;1.93;1.00;;;7.00;99.90;;;;;;5032144;28;20223;-80
2020/12/27 12:31:44;;;;;;;1.80;0.57;;;7.00;99.90;;;;;;5022383;28;20288;-80
2020/12/27 12:34:10;;;;;;;2.90;1.60;;;7.00;99.90;;;;;;5017015;28;20270;-79
2020/12/27 12:36:36;;;;;;;2.30;1.07;;;7.00;99.90;;;;;;5014955;28;20771;-80
2020/12/27 12:39:04;;;;;;;8.07;3.33;;;7.00;99.90;;;;;;5035541;28;20558;-79
2020/12/27 12:41:32;;;;;;;4.43;2.57;;;6.90;99.90;;;;;;5028238;28;20191;-79
2020/12/27 12:43:59;;;;;;;0.43;0.40;;;6.90;99.90;;;;;;5027280;28;20339;-79
2020/12/27 12:46:25;;;;;;;3.10;0.90;;;7.00;99.90;;;;;;5039657;28;20336;-79
2020/12/27 12:48:53;;;;;;;1.80;0.50;;;7.00;99.90;;;;;;5035779;28;20212;-79
2020/12/27 12:51:20;;;;;;;2.93;0.80;;;7.00;99.90;;;;;;5025361;28;20713;-79
2020/12/27 12:53:46;;;;;;;9.37;3.50;;;7.00;99.90;;;;;;5022959;28;20659;-79
2020/12/27 12:56:12;;;;;;;7.53;2.60;;;6.90;99.90;;;;;;5037537;28;20199;-79
2020/12/27 12:58:38;;;;;;;16.67;7.43;;;6.90;99.90;;;;;;5023386;28;20208;-79
2020/12/27 13:01:05;;;;;;;5.10;2.03;;;6.90;99.90;;;;;;5042289;28;20208;-79
2020/12/27 13:03:31;;;;;;;9.90;3.87;;;6.80;99.90;;;;;;5039576;28;20571;-78
2020/12/27 13:05:56;;;;;;;12.80;5.53;;;6.80;99.90;;;;;;5016325;28;20197;-78
2020/12/27 13:08:22;;;;;;;17.13;8.03;;;6.90;99.90;;;;;;5024016;28;20190;-78
2020/12/27 13:10:50;;;;;;;8.03;2.70;;;6.90;99.90;;;;;;5020363;28;20582;-79
2020/12/27 13:13:16;;;;;;;8.60;3.23;;;6.90;99.90;;;;;;5021233;28;20187;-78
2020/12/27 13:15:41;;;;;;;6.30;2.97;;;6.90;99.90;;;;;;5023716;28;20647;-78
2020/12/27 13:18:07;;;;;;;1.63;0.77;;;7.00;99.90;;;;;;5035939;28;20222;-78